Time;durP1;ratioP1;P1;durP2;ratioP2;P2;SDS_P1;SDS_P2;PMS_P1;PMS_P2;Temp;Humidity;BMP_temperature;BMP_pressure;BME280_temperature;BME280_humidity;BME280_pressure;Samples;Min_cycle;Max_cycle;Signal;HPM_P1;HPM_P2
2021/06/30 00:05:35;;;;;;;;;;;;;;;;;;;;;
2021/06/30 00:08:56;;;;;;;;;;;;;;;;;;;;;
2021/06/30 00:11:28;;;;;;;;;;;;;;;;;;;;;
2021/06/30 00:48:39;;;;;;;;;;;;;;;;;;;;;
2021/06/30 00:53:15;;;;;;;;;;;;;;;;;;;;;
2021/06/30 02:02:13;;;;;;;;;;;;;;;;;;;;;
2021/06/30 02:17:52;;;;;;;;;;;;;;;;;;;;;
2021/06/30 02:20:54;;;;;;;;;;;;;;;;;;;;;
2021/06/30 02:23:34;;;;;;;;;;;;;;;;;;;;;
2021/06/30 02:27:16;;;;;;;;;;;;;;;;;;;;;
2021/06/30 02:30:36;;;;;;;;;;;;;;;;;;;;;
2021/06/30 02:42:55;;;;;;;;;;;;;;;;;;;;;
2021/06/30 02:49:21;;;;;;;;;;;;;;;;;;;;;
2021/06/30 02:52:18;;;;;;;24.67;11.68;;;;;;;18.68;100.00;100684.45;1260148;111;21315;-92
2021/06/30 05:25:55;;;;;;;42.98;25.70;;;;;;;23.08;100.00;100710.36;1513357;93;21688;-93
2021/06/30 05:29:06;;;;;;;;;;;;;;;;;;;;;
2021/06/30 05:31:50;;;;;;;38.45;26.80;;;;;;;23.25;100.00;100707.73;1392298;99;21261;-92
2021/06/30 05:42:46;;;;;;;;;;;;;;;;;;;;;
2021/06/30 05:45:52;;;;;;;;;;;;;;;;;;;;;
2021/06/30 06:11:03;;;;;;;;;;;;;;;;;;;;;
2021/06/30 06:14:33;;;;;;;;;;;;;;;;;;;;;
2021/06/30 06:31:29;;;;;;;10.90;8.25;;;;;;;24.45;100.00;100706.88;1255940;112;21366;-88
2021/06/30 06:33:56;;;;;;;13.55;8.38;;;;;;;24.57;100.00;100710.58;1220035;115;21284;-88
2021/06/30 06:36:24;;;;;;;11.10;8.85;;;;;;;24.62;100.00;100705.44;1265979;102;21297;-90
2021/06/30 06:38:51;;;;;;;8.93;8.03;;;;;;;24.67;100.00;100709.69;1463122;96;21476;-90
2021/06/30 06:41:18;;;;;;;9.25;8.35;;;;;;;24.73;100.00;100709.34;1514125;91;21598;-90
2021/06/30 06:43:47;;;;;;;13.00;8.80;;;;;;;24.81;100.00;100708.33;1558079;91;21658;-90
2021/06/30 06:46:14;;;;;;;15.03;9.58;;;;;;;24.86;100.00;100709.84;1547116;90;21092;-91
2021/06/30 06:48:42;;;;;;;9.80;8.65;;;;;;;24.91;100.00;100709.22;1580095;90;21187;-90
2021/06/30 06:51:09;;;;;;;11.95;8.00;;;;;;;24.94;100.00;100704.81;1568511;89;21137;-89
2021/06/30 06:53:36;;;;;;;9.88;8.10;;;;;;;25.01;100.00;100713.08;1561122;89;21183;-90
2021/06/30 06:56:08;;;;;;;8.30;7.45;;;;;;;25.11;100.00;100707.34;1547525;91;21620;-90
2021/06/30 06:58:33;;;;;;;9.53;8.58;;;;;;;25.23;100.00;100700.00;1558999;90;21097;-91
2021/06/30 07:01:01;;;;;;;9.25;8.35;;;;;;;25.31;100.00;100702.44;1560433;90;22018;-91
2021/06/30 07:03:28;;;;;;;10.90;9.58;;;;;;;25.34;100.00;100704.69;1566703;90;21253;-90
2021/06/30 07:05:55;;;;;;;12.30;9.68;;;;;;;25.41;100.00;100698.84;1540851;90;21069;-91
2021/06/30 07:08:22;;;;;;;9.08;8.28;;;;;;;25.50;100.00;100700.24;1560927;90;21056;-91
2021/06/30 07:10:49;;;;;;;8.73;7.95;;;;;;;25.57;100.00;100694.86;1559819;90;21049;-91
2021/06/30 07:15:33;;;;;;;9.68;8.78;;;;;;;25.69;100.00;100699.00;1778047;78;28692;-89
2021/06/30 07:18:00;;;;;;;14.10;9.33;;;;;;;25.69;100.00;100699.00;1725213;81;21072;-90
2021/06/30 07:20:27;;;;;;;9.40;8.48;;;;;;;25.80;100.00;100703.66;1707725;82;21178;-92
2021/06/30 07:22:55;;;;;;;9.55;8.70;;;;;;;25.86;100.00;100699.33;1709882;82;21587;-91
2021/06/30 07:25:22;;;;;;;9.95;8.95;;;;;;;25.88;100.00;100701.23;1715006;81;21040;-91
2021/06/30 07:27:49;;;;;;;9.65;8.13;;;;;;;25.91;100.00;100702.68;1715272;81;20961;-90
2021/06/30 07:30:17;;;;;;;9.25;8.30;;;;;;;25.98;100.00;100706.12;1715134;81;21001;-92
2021/06/30 07:32:44;;;;;;;9.88;8.58;;;;;;;26.04;100.00;100700.44;1713871;82;21492;-90
2021/06/30 07:35:11;;;;;;;13.15;9.73;;;;;;;26.13;100.00;100703.98;1708603;81;21576;-90
2021/06/30 07:37:38;;;;;;;11.48;9.43;;;;;;;26.23;100.00;100696.82;1715340;82;21248;-93
2021/06/30 07:40:07;;;;;;;10.93;9.65;;;;;;;26.32;100.00;100700.02;1715011;82;21720;-89
2021/06/30 07:42:34;;;;;;;13.10;10.13;;;;;;;26.38;100.00;100695.67;1715031;82;21005;-93
2021/06/30 07:45:03;;;;;;;9.18;7.83;;;;;;;26.41;100.00;100700.05;1739811;81;21156;-91
2021/06/30 07:47:30;;;;;;;8.15;7.33;;;;;;;26.45;100.00;100702.59;1710042;82;21012;-91
2021/06/30 07:49:57;;;;;;;7.35;6.67;;;;;;;26.50;100.00;100689.93;1703154;82;21036;-90
2021/06/30 07:53:06;;;;;;;;;;;;;;;;;;;;;
2021/06/30 07:55:48;;;;;;;;;;;;;;;;;;;;;
2021/06/30 08:01:35;;;;;;;;;;;;;;;;;;;;;
2021/06/30 08:04:34;;;;;;;;;;;;;;;;;;;;;
2021/06/30 08:06:59;;;;;;;11.85;7.80;;;;;;;26.74;100.00;100686.10;1382537;100;21175;-91
2021/06/30 08:09:28;;;;;;;9.95;7.55;;;;;;;26.73;100.00;100687.94;1354534;103;21665;-90
2021/06/30 08:11:59;;;;;;;30.88;9.38;;;;;;;26.75;100.00;100689.88;1418014;97;21248;-94
2021/06/30 08:14:27;;;;;;;57.25;10.72;;;;;;;26.84;100.00;100689.09;1440979;96;21565;-91
2021/06/30 08:16:54;;;;;;;10.03;7.95;;;;;;;26.93;100.00;100685.63;1527726;91;21571;-90
2021/06/30 08:19:21;;;;;;;19.23;8.10;;;;;;;27.01;100.00;100683.98;1550509;90;21578;-91
2021/06/30 08:21:49;;;;;;;10.43;7.58;;;;;;;27.04;100.00;100689.40;1555344;89;21084;-91
2021/06/30 08:24:16;;;;;;;23.80;10.13;;;;;;;27.01;100.00;100683.98;1555215;91;21048;-91
2021/06/30 08:26:46;;;;;;;21.95;9.05;;;;;;;27.02;100.00;100686.95;1587742;86;21584;-93
2021/06/30 08:29:13;;;;;;;9.08;8.10;;;;;;;27.06;100.00;100683.31;1656810;83;21041;-90
2021/06/30 08:31:41;;;;;;;10.50;8.13;;;;;;;27.10;100.00;100691.17;1710335;82;21048;-91
2021/06/30 08:34:09;;;;;;;17.00;11.22;;;;;;;27.17;100.00;100699.12;1688500;83;21131;-89
2021/06/30 08:36:36;;;;;;;22.07;11.78;;;;;;;27.30;100.00;100689.59;1665641;83;20958;-90
2021/06/30 08:39:05;;;;;;;28.15;11.18;;;;;;;27.46;100.00;100680.68;1694273;81;21126;-92
2021/06/30 08:41:32;;;;;;;13.40;10.58;;;;;;;27.62;100.00;100687.27;1704395;81;21126;-92
2021/06/30 08:43:59;;;;;;;18.65;10.00;;;;;;;27.70;100.00;100691.75;1728093;81;21024;-93
2021/06/30 08:46:27;;;;;;;10.08;8.43;;;;;;;27.68;100.00;100691.16;1721357;81;21436;-92
2021/06/30 08:48:57;;;;;;;13.05;7.10;;;;;;;27.57;95.62;100687.11;1709667;82;21682;-94
2021/06/30 08:51:26;;;;;;;10.13;6.60;;;;;;;27.47;86.64;100693.84;1689702;82;21152;-91
2021/06/30 08:53:55;;;;;;;11.10;7.35;;;;;;;27.42;88.43;100688.34;1660658;82;21014;-92
2021/06/30 08:56:32;;;;;;;9.65;8.00;;;;;;;27.46;99.07;100682.84;1661356;84;21057;-92
2021/06/30 08:59:01;;;;;;;9.10;7.80;;;;;;;27.51;100.00;100684.84;1688586;82;21053;-93
2021/06/30 09:01:32;;;;;;;23.87;7.60;;;;;;;27.57;100.00;100681.26;1708779;82;20938;-90
2021/06/30 09:04:00;;;;;;;9.05;7.08;;;;;;;27.70;89.44;100680.26;1698266;82;21033;-92
2021/06/30 09:06:29;;;;;;;8.13;6.40;;;;;;;27.77;83.35;100679.63;1694588;80;21089;-91
2021/06/30 09:09:03;;;;;;;9.38;6.60;;;;;;;27.83;92.26;100673.90;1705079;80;21025;-91
2021/06/30 09:11:33;;;;;;;8.73;6.00;;;;;;;27.86;99.77;100669.41;1724115;81;20981;-92
2021/06/30 09:14:20;;;;;;;12.98;6.22;;;;;;;27.94;80.19;100669.08;1714644;82;21903;-94
2021/06/30 09:17:10;;;;;;;7.17;5.70;;;;;;;27.99;77.00;100676.41;1735099;81;21128;-94
2021/06/30 09:19:54;;;;;;;6.65;6.05;;;;;;;27.99;83.50;100669.22;1724308;80;21124;-90
2021/06/30 09:22:44;;;;;;;6.80;6.10;;;;;;;28.14;85.23;100673.34;1705493;82;21096;-94
2021/06/30 09:25:27;;;;;;;8.85;5.80;;;;;;;28.28;96.00;100675.27;1700790;82;21146;-91
2021/06/30 09:27:55;;;;;;;6.70;6.00;;;;;;;28.30;80.09;100674.50;1702746;82;21150;-90
2021/06/30 09:30:23;;;;;;;7.00;5.58;;;;;;;28.11;82.16;100672.45;1702319;82;21487;-94
2021/06/30 09:33:04;;;;;;;7.10;6.40;;;;;;;27.95;92.90;100673.39;1702372;82;21055;-92
2021/06/30 09:35:34;;;;;;;7.03;5.87;;;;;;;27.94;89.53;100666.41;1716778;82;21044;-91
2021/06/30 09:38:30;;;;;;;6.83;6.22;;;;;;;28.04;92.96;100668.53;1702579;82;21087;-92
2021/06/30 09:40:58;;;;;;;6.37;5.80;;;;;;;28.16;83.23;100664.02;1705483;82;21546;-92
2021/06/30 09:43:33;;;;;;;7.42;5.55;;;;;;;28.28;82.74;100663.23;1728562;81;21527;-91
2021/06/30 09:46:07;;;;;;;7.60;5.55;;;;;;;28.34;75.48;100661.75;1737609;81;21520;-91
2021/06/30 09:48:38;;;;;;;7.22;5.10;;;;;;;28.40;80.59;100659.21;1679189;84;21109;-90
2021/06/30 09:51:06;;;;;;;7.00;5.55;;;;;;;28.48;72.31;100658.32;1689302;83;21219;-92
2021/06/30 09:53:40;;;;;;;8.48;5.20;;;;;;;28.45;73.21;100666.02;1689473;83;21100;-91
2021/06/30 09:56:32;;;;;;;7.47;6.05;;;;;;;28.43;80.97;100668.09;1639321;83;21113;-91
2021/06/30 09:58:45;;;;;;;17.90;5.40;;;;;;;28.50;72.37;100663.44;1659286;83;21018;-92
2021/06/30 10:01:21;;;;;;;6.22;5.30;;;;;;;28.65;82.51;100656.27;1662844;83;21029;-90
2021/06/30 10:03:49;;;;;;;6.72;5.37;;;;;;;28.82;88.34;100656.38;1640296;83;21214;-91
2021/06/30 10:06:31;;;;;;;65.17;7.92;;;;;;;28.98;69.85;100662.05;1627106;85;21545;-92
2021/06/30 10:09:03;;;;;;;6.55;5.37;;;;;;;28.95;84.48;100659.32;1656959;84;20983;-89
2021/06/30 10:11:32;;;;;;;5.87;5.30;;;;;;;28.93;80.46;100659.56;1647490;84;21052;-93
2021/06/30 10:14:02;;;;;;;10.23;5.75;;;;;;;29.01;83.31;100655.69;1669267;83;21524;-92
2021/06/30 10:16:30;;;;;;;;;;;;;;;29.12;72.32;100659.41;1668637;82;21324;-91
2021/06/30 10:19:02;;;;;;;9.58;5.30;;;;;;;29.03;72.88;100656.81;1684326;82;21861;-91
2021/06/30 10:21:31;;;;;;;6.25;5.65;;;;;;;28.77;66.01;100644.23;1649111;82;21484;-90
2021/06/30 10:23:59;;;;;;;5.55;5.05;;;;;;;28.48;71.91;100649.48;1704789;81;21042;-90
2021/06/30 10:26:26;;;;;;;6.28;5.20;;;;;;;28.13;76.59;100644.41;1686511;82;21630;-90
2021/06/30 10:28:58;;;;;;;8.08;5.70;;;;;;;27.81;80.17;100639.87;1734046;80;21005;-90
2021/06/30 10:31:36;;;;;;;6.50;5.78;;;;;;;27.57;81.06;100644.33;1703918;80;21181;-90
2021/06/30 10:34:10;;;;;;;6.42;5.83;;;;;;;27.40;96.16;100647.11;1710557;82;21524;-90
2021/06/30 10:36:55;;;;;;;9.78;6.20;;;;;;;27.25;91.94;100646.70;1737200;80;21017;-91
2021/06/30 10:39:42;;;;;;;8.13;6.20;;;;;;;27.18;98.25;100643.30;1699087;82;21587;-89
2021/06/30 10:42:31;;;;;;;7.83;5.97;;;;;;;27.14;100.00;100643.44;1683559;84;22164;-91
2021/06/30 10:45:00;;;;;;;6.83;6.12;;;;;;;27.06;100.00;100642.70;1697407;80;21465;-90
2021/06/30 10:47:54;;;;;;;;;;;;;;;26.94;100.00;100636.50;1716589;80;20978;-90
2021/06/30 10:50:31;;;;;;;6.50;5.58;;;;;;;26.76;100.00;100634.66;1709653;82;20196;-92
2021/06/30 10:53:11;;;;;;;6.95;6.25;;;;;;;26.61;100.00;100633.12;1699289;82;21551;-89
2021/06/30 10:55:48;;;;;;;6.67;5.90;;;;;;;26.50;100.00;100628.53;1705074;82;21078;-91
2021/06/30 10:58:17;;;;;;;6.85;6.20;;;;;;;26.44;100.00;100624.08;1695811;82;22478;-90
2021/06/30 11:01:04;;;;;;;6.70;6.12;;;;;;;26.34;100.00;100625.09;1685249;82;21116;-89
2021/06/30 11:03:34;;;;;;;7.08;6.37;;;;;;;26.27;100.00;100621.98;1694433;80;21089;-87
2021/06/30 11:06:13;;;;;;;8.03;6.92;;;;;;;26.25;100.00;100629.87;1705449;82;21103;-89
2021/06/30 11:09:05;;;;;;;8.33;6.47;;;;;;;26.28;100.00;100625.45;1679750;82;21116;-91
2021/06/30 11:11:38;;;;;;;7.65;6.40;;;;;;;26.25;100.00;100623.20;1704029;82;21559;-90
2021/06/30 11:14:12;;;;;;;9.85;6.67;;;;;;;26.12;100.00;100618.30;1710237;81;21057;-89
2021/06/30 11:16:52;;;;;;;11.80;7.00;;;;;;;26.07;100.00;100614.13;1714185;81;21528;-89
2021/06/30 11:19:26;;;;;;;9.95;7.22;;;;;;;26.02;100.00;100612.61;1737148;80;21492;-89
2021/06/30 11:22:08;;;;;;;7.20;6.60;;;;;;;25.97;100.00;100617.26;1735293;80;21033;-90
2021/06/30 11:24:44;;;;;;;8.45;6.62;;;;;;;25.86;100.00;100605.14;1702477;83;21086;-91
2021/06/30 11:27:24;;;;;;;11.40;7.00;;;;;;;25.86;100.00;100603.81;1702081;82;21028;-91
2021/06/30 11:29:58;;;;;;;7.78;6.83;;;;;;;26.01;100.00;100601.62;1702063;82;21016;-89
2021/06/30 11:32:38;;;;;;;7.25;6.65;;;;;;;26.26;100.00;100600.33;1708842;82;21132;-90
2021/06/30 11:35:18;;;;;;;7.00;6.50;;;;;;;26.56;100.00;100604.14;1714340;82;21041;-88
2021/06/30 11:38:02;;;;;;;9.40;6.37;;;;;;;26.80;100.00;100589.09;1737039;81;20991;-89
2021/06/30 11:40:36;;;;;;;7.65;6.30;;;;;;;27.02;100.00;100590.78;1713353;81;21053;-90
2021/06/30 11:43:12;;;;;;;7.03;6.42;;;;;;;27.27;100.00;100586.33;1687614;82;21065;-91
2021/06/30 11:45:39;;;;;;;10.28;6.00;;;;;;;27.48;100.00;100581.81;1677919;83;21215;-90
2021/06/30 11:48:10;;;;;;;6.55;5.78;;;;;;;27.70;100.00;100585.31;1688642;83;21525;-91
2021/06/30 11:50:57;;;;;;;5.58;5.08;;;;;;;27.85;100.00;100588.35;1671436;83;21061;-90
2021/06/30 11:53:37;;;;;;;11.48;5.55;;;;;;;28.01;100.00;100584.16;1685941;83;21057;-91
2021/06/30 11:56:08;;;;;;;6.37;5.67;;;;;;;28.12;100.00;100579.87;1686002;83;21527;-87
2021/06/30 11:58:49;;;;;;;;;;;;;;;28.24;100.00;100580.41;1665204;83;21598;-92
2021/06/30 12:01:29;;;;;;;13.68;5.65;;;;;;;28.38;99.44;100574.29;1658279;85;20146;-88
2021/06/30 12:04:21;;;;;;;12.00;5.75;;;;;;;28.49;100.00;100578.79;1636300;85;21132;-90
2021/06/30 12:07:03;;;;;;;5.83;5.15;;;;;;;28.45;92.97;100587.82;1658670;85;21073;-88
2021/06/30 12:09:33;;;;;;;5.87;5.37;;;;;;;28.34;98.78;100589.47;1677350;83;21012;-88
2021/06/30 12:12:07;;;;;;;5.62;4.90;;;;;;;28.34;97.49;100584.11;1635517;85;21052;-91
2021/06/30 12:14:50;;;;;;;11.03;5.30;;;;;;;28.44;91.53;100590.20;1635679;85;21167;-88
2021/06/30 12:17:16;;;;;;;7.55;5.37;;;;;;;28.60;89.17;100594.57;1634354;85;21125;-91
2021/06/30 12:19:48;;;;;;;6.10;4.72;;;;;;;28.79;79.49;100589.89;1658823;85;21128;-88
2021/06/30 12:22:33;;;;;;;5.10;4.72;;;;;;;28.86;72.60;100593.25;1658784;85;21025;-88
2021/06/30 12:25:10;;;;;;;4.90;4.45;;;;;;;28.81;65.33;100597.14;1658928;85;21084;-88
2021/06/30 12:27:42;;;;;;;4.95;4.17;;;;;;;28.71;59.31;100596.42;1635967;86;21080;-89
2021/06/30 12:30:25;;;;;;;5.42;4.80;;;;;;;28.69;60.79;100596.34;1636181;86;21226;-90
2021/06/30 12:32:57;;;;;;;5.30;4.80;;;;;;;28.75;72.88;100586.88;1635739;85;21527;-88
2021/06/30 12:35:28;;;;;;;6.00;4.50;;;;;;;28.91;74.02;100585.83;1634614;85;21489;-90
2021/06/30 12:38:10;;;;;;;5.10;4.70;;;;;;;29.05;79.65;100587.67;1636086;86;21110;-87
2021/06/30 12:40:37;;;;;;;5.85;4.78;;;;;;;29.18;71.35;100590.09;1635781;85;21511;-91
2021/06/30 12:43:17;;;;;;;5.30;4.80;;;;;;;29.27;70.00;100592.67;1635548;85;21030;-90
2021/06/30 12:45:50;;;;;;;5.30;4.53;;;;;;;29.24;59.02;100588.31;1636316;85;21037;-88
2021/06/30 12:48:20;;;;;;;;;;;;;;;29.21;69.27;100588.25;1660852;85;21104;-90
2021/06/30 12:50:55;;;;;;;4.70;4.40;;;;;;;29.31;82.61;100592.17;1637360;83;20440;-90
2021/06/30 12:53:28;;;;;;;4.70;4.40;;;;;;;29.39;70.28;100589.95;1686542;83;21079;-92
2021/06/30 12:56:03;;;;;;;5.00;4.60;;;;;;;29.47;67.00;100587.39;1680846;84;21108;-93
2021/06/30 12:58:45;;;;;;;5.40;4.90;;;;;;;29.45;62.79;100586.02;1686228;83;20959;-91
2021/06/30 13:01:25;;;;;;;4.87;4.47;;;;;;;29.37;67.28;100588.55;1662740;85;21041;-90
2021/06/30 13:03:57;;;;;;;5.37;4.90;;;;;;;29.35;74.31;100588.80;1636956;86;21070;-89
2021/06/30 13:06:29;;;;;;;6.60;5.10;;;;;;;29.34;66.69;100585.03;1654410;85;21646;-92
2021/06/30 13:09:09;;;;;;;6.70;5.03;;;;;;;29.41;70.96;100583.00;1675960;84;21046;-92
2021/06/30 13:11:52;;;;;;;4.87;4.37;;;;;;;29.55;65.06;100586.19;1654591;84;21065;-90
2021/06/30 13:14:36;;;;;;;6.08;4.90;;;;;;;29.68;75.27;100581.04;1649685;85;21553;-91
2021/06/30 13:17:10;;;;;;;5.05;4.55;;;;;;;29.73;64.17;100579.22;1659006;85;20983;-90
2021/06/30 13:19:49;;;;;;;5.83;4.53;;;;;;;29.65;63.69;100584.20;1668024;84;21102;-91
2021/06/30 13:22:26;;;;;;;4.55;4.15;;;;;;;29.59;64.26;100578.76;1644018;86;21592;-91
2021/06/30 13:24:54;;;;;;;5.17;4.67;;;;;;;29.57;62.92;100582.20;1644520;86;21080;-89
2021/06/30 13:36:06;;;;;;;5.08;4.67;;;;;;;29.62;59.81;100585.50;1687128;82;21130;-92
2021/06/30 13:38:47;;;;;;;6.42;5.47;;;;;;;29.43;60.47;100576.88;1717258;82;21487;-90
2021/06/30 13:41:18;;;;;;;5.45;4.90;;;;;;;29.35;67.85;100582.63;1702574;82;21004;-94
2021/06/30 13:43:49;;;;;;;5.03;4.62;;;;;;;29.33;73.98;100582.86;1702197;82;21130;-89
2021/06/30 13:46:21;;;;;;;5.90;4.97;;;;;;;29.38;69.76;100579.45;1710611;81;21140;-89
2021/06/30 13:48:48;;;;;;;5.85;4.90;;;;;;;29.48;69.87;100578.30;1690862;81;21100;-89
2021/06/30 13:54:14;;;;;;;5.50;5.00;;;;;;;29.62;56.51;100577.97;1785709;78;22746;-89
2021/06/30 13:56:41;;;;;;;5.15;4.65;;;;;;;29.50;65.70;100572.16;1681034;83;21089;-89
2021/06/30 13:59:09;;;;;;;8.00;4.85;;;;;;;29.47;68.61;100580.69;1715784;81;21048;-89
2021/06/30 14:01:38;;;;;;;8.70;5.20;;;;;;;29.45;66.71;100574.74;1731081;80;21078;-89
2021/06/30 14:04:11;;;;;;;5.00;4.60;;;;;;;29.47;63.00;100575.32;1678258;81;21140;-88
2021/06/30 14:06:39;;;;;;;8.20;4.53;;;;;;;29.48;64.82;100575.61;1666023;82;21521;-90
2021/06/30 14:09:06;;;;;;;4.75;4.35;;;;;;;29.55;64.57;100569.55;1661368;83;21030;-89
2021/06/30 14:11:33;;;;;;;11.10;5.08;;;;;;;29.67;59.53;100570.02;1722360;82;22365;-90
2021/06/30 14:14:05;;;;;;;5.90;4.53;;;;;;;29.71;61.48;100569.28;1704391;82;21536;-90
2021/06/30 14:16:32;;;;;;;7.72;4.70;;;;;;;29.73;61.96;100565.01;1691142;82;21133;-89
2021/06/30 14:18:59;;;;;;;5.35;4.47;;;;;;;29.72;55.60;100568.75;1720334;81;21595;-90
2021/06/30 14:21:28;;;;;;;5.45;4.83;;;;;;;29.68;57.87;100554.20;1706170;82;21036;-89
2021/06/30 14:23:56;;;;;;;7.12;4.65;;;;;;;29.67;58.41;100560.62;1652317;85;21520;-91
2021/06/30 14:26:25;;;;;;;4.45;4.15;;;;;;;29.67;58.79;100556.60;1654809;82;21553;-89
2021/06/30 14:28:52;;;;;;;5.15;4.62;;;;;;;29.63;58.81;100552.26;1670158;83;21157;-91
2021/06/30 14:31:20;;;;;;;5.28;4.45;;;;;;;29.49;50.11;100553.10;1638306;83;21090;-90
2021/06/30 14:33:47;;;;;;;5.25;4.85;;;;;;;29.34;58.65;100542.92;1669435;83;21208;-90
2021/06/30 14:36:15;;;;;;;5.65;4.65;;;;;;;29.21;61.97;100545.89;1702142;82;21192;-91
2021/06/30 14:38:42;;;;;;;4.35;4.00;;;;;;;29.15;64.56;100536.95;1672300;83;20963;-91
2021/06/30 14:41:09;;;;;;;5.33;4.92;;;;;;;29.21;61.56;100535.17;1684851;82;21055;-90
2021/06/30 14:43:37;;;;;;;4.90;4.60;;;;;;;29.28;59.46;100535.83;1673498;83;21127;-90
2021/06/30 14:46:04;;;;;;;9.05;4.28;;;;;;;29.32;57.21;100532.99;1658249;85;21105;-90
2021/06/30 14:48:32;;;;;;;4.78;4.37;;;;;;;29.34;63.57;100534.08;1650617;85;21049;-90
2021/06/30 14:51:00;;;;;;;6.42;4.58;;;;;;;29.37;65.66;100533.06;1645276;84;21749;-90
2021/06/30 14:53:28;;;;;;;5.03;4.40;;;;;;;29.35;60.79;100534.38;1631542;85;21644;-91
2021/06/30 14:55:55;;;;;;;5.80;4.22;;;;;;;29.34;60.87;100535.42;1688734;82;21094;-91
2021/06/30 14:58:24;;;;;;;4.85;4.40;;;;;;;29.31;65.06;100530.02;1657015;83;21698;-90
2021/06/30 15:00:54;;;;;;;8.88;4.30;;;;;;;29.26;65.27;100526.70;1659509;84;21810;-90
2021/06/30 15:03:24;;;;;;;4.12;3.72;;;;;;;29.25;66.60;100533.11;1689933;82;21124;-91
2021/06/30 15:05:57;;;;;;;5.90;4.83;;;;;;;29.22;64.21;100537.60;1657209;83;21766;-91
2021/06/30 15:08:28;;;;;;;5.12;4.65;;;;;;;29.16;58.69;100537.77;1658279;83;21069;-90
2021/06/30 15:10:55;;;;;;;5.25;4.85;;;;;;;29.01;60.28;100532.95;1649879;85;21439;-89
2021/06/30 15:13:24;;;;;;;6.20;5.70;;;;;;;28.87;63.89;100537.27;1667539;85;21036;-90
2021/06/30 15:15:51;;;;;;;6.33;5.55;;;;;;;28.79;67.62;100537.11;1637593;86;21113;-91
2021/06/30 15:18:23;;;;;;;9.58;5.75;;;;;;;28.79;69.82;100539.79;1631631;86;21098;-91
2021/06/30 15:20:51;;;;;;;5.30;4.80;;;;;;;28.83;63.42;100534.77;1678839;83;21068;-90
2021/06/30 15:23:18;;;;;;;5.12;4.53;;;;;;;28.84;65.51;100534.25;1648787;85;21131;-91
2021/06/30 15:25:47;;;;;;;4.85;4.45;;;;;;;28.79;60.24;100536.31;1658337;84;21185;-90
2021/06/30 15:28:15;;;;;;;6.53;4.65;;;;;;;28.72;67.67;100537.78;1666265;84;21157;-91
2021/06/30 15:30:42;;;;;;;4.60;4.15;;;;;;;28.68;65.90;100534.45;1659323;83;21108;-90
2021/06/30 15:33:09;;;;;;;6.15;4.33;;;;;;;28.65;64.49;100533.86;1621961;85;21143;-90
2021/06/30 15:35:38;;;;;;;6.03;4.50;;;;;;;28.67;67.10;100534.16;1672811;83;21053;-90
2021/06/30 15:38:06;;;;;;;4.22;3.92;;;;;;;28.68;66.95;100542.48;1688879;83;21192;-90
2021/06/30 15:40:41;;;;;;;5.10;3.95;;;;;;;28.63;71.54;100543.19;1707466;82;21015;-89
2021/06/30 15:43:03;;;;;;;4.42;4.03;;;;;;;28.57;70.71;100538.25;1685240;82;21033;-91
2021/06/30 15:45:30;;;;;;;4.42;3.95;;;;;;;28.54;73.35;100544.10;1715443;81;21061;-90
2021/06/30 15:47:59;;;;;;;4.55;4.05;;;;;;;28.51;73.55;100547.24;1681518;81;21124;-90
2021/06/30 15:50:28;;;;;;;5.42;4.17;;;;;;;28.47;59.27;100543.42;1707304;82;21205;-91
2021/06/30 15:52:55;;;;;;;5.05;4.30;;;;;;;28.47;62.02;100542.09;1694144;82;21084;-89
2021/06/30 15:55:22;;;;;;;7.78;4.62;;;;;;;28.48;66.57;100546.39;1691131;82;21224;-90
2021/06/30 15:57:50;;;;;;;5.03;4.15;;;;;;;28.51;68.98;100544.56;1661394;83;21200;-91
2021/06/30 16:00:20;;;;;;;4.60;4.20;;;;;;;28.54;65.40;100546.78;1658418;84;21477;-91
2021/06/30 16:02:57;;;;;;;4.78;4.22;;;;;;;28.54;64.08;100546.78;1651399;83;21097;-91
2021/06/30 16:05:18;;;;;;;8.10;4.50;;;;;;;28.48;68.12;100557.11;1679318;82;21539;-90
2021/06/30 16:07:46;;;;;;;4.50;4.10;;;;;;;28.42;80.70;100565.55;1685835;83;21104;-90
2021/06/30 16:10:16;;;;;;;4.50;4.12;;;;;;;28.34;79.13;100570.73;1657158;83;21113;-89
2021/06/30 16:12:45;;;;;;;4.22;3.92;;;;;;;28.21;73.91;100573.66;1676311;83;21175;-89
2021/06/30 16:15:17;;;;;;;5.55;4.28;;;;;;;28.05;74.10;100574.34;1721806;81;21092;-91
2021/06/30 16:17:46;;;;;;;15.40;5.03;;;;;;;27.83;81.05;100572.25;1703384;82;21085;-90
2021/06/30 16:20:17;;;;;;;13.32;4.28;;;;;;;27.61;79.16;100571.98;1707902;82;21034;-90
2021/06/30 16:22:44;;;;;;;;;;;;;;;27.43;83.09;100575.02;1718884;82;21195;-90
2021/06/30 16:25:13;;;;;;;19.80;5.25;;;;;;;27.32;89.97;100580.59;1706052;81;20203;-90
2021/06/30 16:27:40;;;;;;;16.75;5.55;;;;;;;27.23;99.35;100584.62;1652306;84;22178;-90
2021/06/30 16:30:09;;;;;;;19.87;5.30;;;;;;;27.17;100.00;100590.89;1664411;84;21157;-90
2021/06/30 16:32:37;;;;;;;26.10;5.80;;;;;;;27.09;98.86;100597.34;1669634;85;21838;-90
2021/06/30 16:35:06;;;;;;;17.73;4.80;;;;;;;27.03;100.00;100600.93;1686025;83;21101;-90
2021/06/30 16:37:33;;;;;;;10.18;4.67;;;;;;;26.98;100.00;100600.27;1631021;86;21105;-90
2021/06/30 16:40:00;;;;;;;14.28;5.70;;;;;;;26.95;96.20;100598.06;1676518;84;21911;-90
2021/06/30 16:42:27;;;;;;;15.60;4.87;;;;;;;26.92;100.00;100597.16;1670437;84;21251;-90
2021/06/30 16:44:55;;;;;;;8.45;4.67;;;;;;;26.88;100.00;100606.15;1673122;84;21598;-91
2021/06/30 16:47:22;;;;;;;11.38;4.95;;;;;;;26.84;100.00;100609.48;1685288;83;21093;-90
2021/06/30 16:49:49;;;;;;;11.40;4.75;;;;;;;26.78;100.00;100609.86;1703308;82;21088;-92
2021/06/30 16:52:16;;;;;;;5.25;4.75;;;;;;;26.73;100.00;100609.69;1711006;82;22229;-91
2021/06/30 16:54:44;;;;;;;5.85;5.30;;;;;;;26.70;100.00;100605.62;1673856;82;21101;-90
2021/06/30 16:57:12;;;;;;;7.60;4.65;;;;;;;26.70;98.17;100604.28;1665888;82;21152;-90
2021/06/30 16:59:40;;;;;;;21.12;6.75;;;;;;;26.71;100.00;100609.92;1701242;82;21532;-90
2021/06/30 17:02:07;;;;;;;9.40;5.25;;;;;;;26.71;100.00;100613.93;1695091;82;21031;-91
2021/06/30 17:04:34;;;;;;;21.93;6.70;;;;;;;26.67;100.00;100620.73;1694190;83;21323;-91
2021/06/30 17:07:01;;;;;;;26.68;6.45;;;;;;;26.60;100.00;100613.32;1679232;82;21074;-91
2021/06/30 17:09:29;;;;;;;11.05;5.97;;;;;;;26.56;100.00;100612.95;1697682;83;21110;-90
2021/06/30 17:11:56;;;;;;;11.65;6.05;;;;;;;26.53;100.00;100611.25;1690052;82;21036;-90
2021/06/30 17:14:23;;;;;;;7.08;5.08;;;;;;;26.52;100.00;100605.08;1686717;82;20995;-90
2021/06/30 17:16:51;;;;;;;7.97;5.70;;;;;;;26.54;100.00;100606.20;1716966;82;21102;-91
2021/06/30 17:19:18;;;;;;;10.60;6.17;;;;;;;26.54;100.00;100606.20;1702074;83;21054;-90
2021/06/30 17:21:45;;;;;;;9.68;6.87;;;;;;;26.52;100.00;100608.27;1730093;82;20982;-90
2021/06/30 17:24:12;;;;;;;9.85;6.87;;;;;;;26.50;100.00;100607.67;1699383;83;21023;-91
2021/06/30 17:26:40;;;;;;;20.85;7.53;;;;;;;26.48;100.00;100611.11;1707461;82;21050;-90
2021/06/30 17:29:07;;;;;;;18.85;7.78;;;;;;;26.44;100.00;100616.07;1700766;82;22066;-91
2021/06/30 17:31:34;;;;;;;47.15;9.58;;;;;;;26.41;100.00;100611.16;1705604;82;21068;-90
2021/06/30 17:34:01;;;;;;;79.47;11.05;;;;;;;26.37;100.00;100614.80;1689784;83;21114;-90
2021/06/30 17:36:30;;;;;;;58.83;16.10;;;;;;;26.31;100.00;100611.67;1653550;83;21003;-90
2021/06/30 17:38:57;;;;;;;20.00;13.25;;;;;;;26.26;100.00;100613.67;1612297;86;21155;-91
2021/06/30 17:41:31;;;;;;;33.98;13.32;;;;;;;26.20;100.00;100612.39;1633671;85;21091;-91
2021/06/30 17:43:55;;;;;;;71.67;15.15;;;;;;;26.13;100.00;100617.77;1665969;84;21086;-90
2021/06/30 17:46:24;;;;;;;79.47;13.30;;;;;;;26.08;100.00;100616.29;1701753;81;21489;-90
2021/06/30 17:48:52;;;;;;;17.62;11.57;;;;;;;26.02;100.00;100618.47;1675419;83;21203;-90
2021/06/30 17:51:19;;;;;;;27.10;11.75;;;;;;;25.91;100.00;100619.47;1690932;83;21647;-90
2021/06/30 17:53:47;;;;;;;18.95;11.22;;;;;;;25.83;100.00;100619.73;1710084;81;21122;-90
2021/06/30 17:56:18;;;;;;;37.93;12.40;;;;;;;25.76;100.00;100623.77;1711782;81;21080;-90
2021/06/30 17:58:48;;;;;;;51.40;17.20;;;;;;;25.69;100.00;100623.00;1708373;81;21078;-92
2021/06/30 18:01:15;;;;;;;59.83;18.40;;;;;;;25.61;100.00;100622.77;1635842;85;21047;-91
2021/06/30 18:03:42;;;;;;;66.05;16.65;;;;;;;25.57;100.00;100620.74;1637561;84;21089;-89